KASE/ASE METAR and TAF weather

Enter ICAO airport designator
Station Type Date Time Source
KASE METAR 2022/12/05 15:10 UTC NOAA

KASE 051510Z 19005KT 10SM FEW009 SCT013 OVC110 00/M01 A2995 RMK AO2 T00001006 $


Station Type Date Time Source
KASE Decoded METAR 2022/12/05 15:10 UTC NOAA

ASPEN-PITKIN COUNTY AIRPORT, CO, United States (KASE) 39-14N 106-52W 2354M
Dec 05, 2022 - 10:10 AM EST / 2022.12.05 1510 UTC
Wind: from the S (190 degrees) at 6 MPH (5 KT):0
Visibility: 10 mile(s):0
Sky conditions: overcast
Temperature: 32.0 F (0.0 C)
Windchill: 26 F (-3 C):1
Dew Point: 30.9 F (-0.6 C)
Relative Humidity: 95%
Pressure (altimeter): 29.95 in. Hg (1014 hPa)
ob: KASE 051510Z 19005KT 10SM FEW009 SCT013 OVC110 00/M01 A2995 RMK AO2 T00001006
cycle: 15

Station Type Date Time Source
KASE TAF 2022/12/05 13:57 UTC NOAA

TAF
AMD KASE 051254Z 0513/0612 VRB04KT P6SM VCSH BKN050 OVC070
TEMPO 0513/0516 5SM -SN BKN015
FM051600 12006KT P6SM VCSH BKN040 WS020/25035KT
FM052000 24008KT P6SM VCSH OVC050 WS020/25030KT
FM052200 28010G19KT P6SM -SHSN OVC070
FM060300 26009KT 3SM -SHSN BR BKN020

Example: see airport list